Zinc, Arkansas
Current Conditions -  °F | °C
As of 7:53 PM on Saturday 25 Oct 2014 (Local Time) from KHRO Reporting Station
Clear Clear  
Wind Chill: 71°   Ceiling: Unl
Heat Index: 71°   Visibility: 10mi
Dew Point: 61°   Wind: 5mph
Humidity: 70%   Direction: 260°W
Pressure: 30.06"   Gusts: NA
Location:  36.2615°N, 93.1062°W
Report Text: KHRO 260053Z AUTO 26004KT 10SM CLR 22/16 A3006 RMK AO2 SLP168 T02170161
Loading
Personal Weather Stations






























Interactive Weather Map
Tropical Storm Tracking
New forecast layout! Learn more

10-Day Weather Forecast

Advertisements
Track Severe Weather on mobile